sensor_id;sensor_type;location;lat;lon;timestamp;temperature;humidity
20803;DHT22;10562;-33.856;151.182;2022-12-07T00:00:19;26.00;99.90
20803;DHT22;10562;-33.856;151.182;2022-12-07T00:02:50;25.90;99.90
20803;DHT22;10562;-33.856;151.182;2022-12-07T00:05:21;25.50;99.90
20803;DHT22;10562;-33.856;151.182;2022-12-07T00:07:52;25.20;99.90
20803;DHT22;10562;-33.856;151.182;2022-12-07T00:10:24;25.30;99.90
20803;DHT22;10562;-33.856;151.182;2022-12-07T00:12:55;25.10;99.90
20803;DHT22;10562;-33.856;151.182;2022-12-07T00:15:27;25.40;99.90
20803;DHT22;10562;-33.856;151.182;2022-12-07T00:17:57;25.70;99.90
20803;DHT22;10562;-33.856;151.182;2022-12-07T00:20:28;26.10;99.90
20803;DHT22;10562;-33.856;151.182;2022-12-07T00:23:00;26.10;99.90
20803;DHT22;10562;-33.856;151.182;2022-12-07T00:25:33;26.00;99.90
20803;DHT22;10562;-33.856;151.182;2022-12-07T00:28:06;26.40;99.90
20803;DHT22;10562;-33.856;151.182;2022-12-07T00:30:38;26.70;99.90
20803;DHT22;10562;-33.856;151.182;2022-12-07T00:33:09;27.00;99.90
20803;DHT22;10562;-33.856;151.182;2022-12-07T00:35:40;26.90;99.90
20803;DHT22;10562;-33.856;151.182;2022-12-07T00:38:11;27.20;99.90
20803;DHT22;10562;-33.856;151.182;2022-12-07T00:40:43;27.50;99.90
20803;DHT22;10562;-33.856;151.182;2022-12-07T00:43:15;27.70;99.90
20803;DHT22;10562;-33.856;151.182;2022-12-07T00:45:46;27.90;99.90
20803;DHT22;10562;-33.856;151.182;2022-12-07T00:48:16;28.20;99.90
20803;DHT22;10562;-33.856;151.182;2022-12-07T00:50:48;28.60;99.90
20803;DHT22;10562;-33.856;151.182;2022-12-07T00:53:20;28.60;99.90
20803;DHT22;10562;-33.856;151.182;2022-12-07T00:55:53;28.60;99.90
20803;DHT22;10562;-33.856;151.182;2022-12-07T00:58:24;28.10;99.90
20803;DHT22;10562;-33.856;151.182;2022-12-07T01:00:54;27.90;99.90
20803;DHT22;10562;-33.856;151.182;2022-12-07T01:03:30;28.00;99.90
20803;DHT22;10562;-33.856;151.182;2022-12-07T01:06:01;27.90;99.90
20803;DHT22;10562;-33.856;151.182;2022-12-07T01:08:33;27.60;99.90
20803;DHT22;10562;-33.856;151.182;2022-12-07T01:11:06;27.40;99.90
20803;DHT22;10562;-33.856;151.182;2022-12-07T01:13:38;27.10;99.90
20803;DHT22;10562;-33.856;151.182;2022-12-07T01:16:10;26.90;99.90
20803;DHT22;10562;-33.856;151.182;2022-12-07T01:18:41;26.80;99.90
20803;DHT22;10562;-33.856;151.182;2022-12-07T01:21:13;26.30;99.90
20803;DHT22;10562;-33.856;151.182;2022-12-07T01:23:45;26.00;99.90
20803;DHT22;10562;-33.856;151.182;2022-12-07T01:26:19;26.10;99.90
20803;DHT22;10562;-33.856;151.182;2022-12-07T01:28:51;26.30;99.90
20803;DHT22;10562;-33.856;151.182;2022-12-07T01:31:23;26.30;99.90
20803;DHT22;10562;-33.856;151.182;2022-12-07T01:33:58;26.10;99.90
20803;DHT22;10562;-33.856;151.182;2022-12-07T01:36:30;26.00;99.90
20803;DHT22;10562;-33.856;151.182;2022-12-07T01:39:03;25.80;99.90
20803;DHT22;10562;-33.856;151.182;2022-12-07T01:41:38;25.80;99.90
20803;DHT22;10562;-33.856;151.182;2022-12-07T01:44:17;25.70;99.90
20803;DHT22;10562;-33.856;151.182;2022-12-07T01:46:48;25.70;99.90
20803;DHT22;10562;-33.856;151.182;2022-12-07T01:49:26;25.70;99.90
20803;DHT22;10562;-33.856;151.182;2022-12-07T01:52:03;25.60;99.90
20803;DHT22;10562;-33.856;151.182;2022-12-07T01:54:36;25.70;99.90
20803;DHT22;10562;-33.856;151.182;2022-12-07T01:57:09;25.70;99.90
20803;DHT22;10562;-33.856;151.182;2022-12-07T01:59:41;25.70;99.90
20803;DHT22;10562;-33.856;151.182;2022-12-07T02:02:18;25.70;99.90
20803;DHT22;10562;-33.856;151.182;2022-12-07T02:04:51;25.70;99.90
20803;DHT22;10562;-33.856;151.182;2022-12-07T02:07:24;25.70;99.90
20803;DHT22;10562;-33.856;151.182;2022-12-07T02:09:55;25.50;99.90
20803;DHT22;10562;-33.856;151.182;2022-12-07T02:12:28;25.60;99.90
20803;DHT22;10562;-33.856;151.182;2022-12-07T02:14:59;25.70;99.90
20803;DHT22;10562;-33.856;151.182;2022-12-07T02:17:34;25.90;99.90
20803;DHT22;10562;-33.856;151.182;2022-12-07T02:20:27;25.90;99.90
20803;DHT22;10562;-33.856;151.182;2022-12-07T02:23:23;25.70;99.90
20803;DHT22;10562;-33.856;151.182;2022-12-07T02:29:10;25.60;99.90
20803;DHT22;10562;-33.856;151.182;2022-12-07T02:31:47;25.90;99.90
20803;DHT22;10562;-33.856;151.182;2022-12-07T02:34:34;26.00;99.90
20803;DHT22;10562;-33.856;151.182;2022-12-07T02:37:09;25.80;99.90
20803;DHT22;10562;-33.856;151.182;2022-12-07T02:39:44;25.80;99.90
20803;DHT22;10562;-33.856;151.182;2022-12-07T02:42:19;25.80;99.90
20803;DHT22;10562;-33.856;151.182;2022-12-07T02:44:53;25.90;99.90
20803;DHT22;10562;-33.856;151.182;2022-12-07T02:47:25;25.80;99.90
20803;DHT22;10562;-33.856;151.182;2022-12-07T02:49:57;25.90;99.90
20803;DHT22;10562;-33.856;151.182;2022-12-07T02:52:28;25.90;99.90
20803;DHT22;10562;-33.856;151.182;2022-12-07T02:54:59;25.90;99.90
20803;DHT22;10562;-33.856;151.182;2022-12-07T02:57:45;25.80;99.90
20803;DHT22;10562;-33.856;151.182;2022-12-07T03:00:22;25.70;99.90
20803;DHT22;10562;-33.856;151.182;2022-12-07T03:02:56;25.50;99.90
20803;DHT22;10562;-33.856;151.182;2022-12-07T03:05:42;25.30;99.90
20803;DHT22;10562;-33.856;151.182;2022-12-07T03:08:23;25.10;99.90
20803;DHT22;10562;-33.856;151.182;2022-12-07T03:11:00;24.90;99.90
20803;DHT22;10562;-33.856;151.182;2022-12-07T03:13:40;24.90;99.90
20803;DHT22;10562;-33.856;151.182;2022-12-07T03:16:16;24.70;99.90
20803;DHT22;10562;-33.856;151.182;2022-12-07T03:18:51;24.60;99.90
20803;DHT22;10562;-33.856;151.182;2022-12-07T03:21:25;24.70;99.90
20803;DHT22;10562;-33.856;151.182;2022-12-07T03:23:58;24.90;99.90
20803;DHT22;10562;-33.856;151.182;2022-12-07T03:26:34;24.90;99.90
20803;DHT22;10562;-33.856;151.182;2022-12-07T03:29:09;25.00;99.90
20803;DHT22;10562;-33.856;151.182;2022-12-07T03:31:45;25.10;99.90
20803;DHT22;10562;-33.856;151.182;2022-12-07T03:34:24;25.10;99.90
20803;DHT22;10562;-33.856;151.182;2022-12-07T03:37:00;25.10;99.90
20803;DHT22;10562;-33.856;151.182;2022-12-07T03:39:36;25.30;99.90
20803;DHT22;10562;-33.856;151.182;2022-12-07T03:42:08;25.30;99.90
20803;DHT22;10562;-33.856;151.182;2022-12-07T03:44:41;25.40;99.90
20803;DHT22;10562;-33.856;151.182;2022-12-07T03:47:19;25.40;99.90
20803;DHT22;10562;-33.856;151.182;2022-12-07T03:49:59;25.40;99.90
20803;DHT22;10562;-33.856;151.182;2022-12-07T03:52:33;25.40;99.90
20803;DHT22;10562;-33.856;151.182;2022-12-07T03:55:11;25.60;99.90
20803;DHT22;10562;-33.856;151.182;2022-12-07T03:57:46;25.70;99.90
20803;DHT22;10562;-33.856;151.182;2022-12-07T04:00:19;25.70;99.90
20803;DHT22;10562;-33.856;151.182;2022-12-07T04:02:52;25.80;99.90
20803;DHT22;10562;-33.856;151.182;2022-12-07T04:05:24;25.90;99.90
20803;DHT22;10562;-33.856;151.182;2022-12-07T04:07:57;25.80;99.90
20803;DHT22;10562;-33.856;151.182;2022-12-07T04:10:28;25.60;99.90
20803;DHT22;10562;-33.856;151.182;2022-12-07T04:12:59;25.20;99.90
20803;DHT22;10562;-33.856;151.182;2022-12-07T04:15:29;25.00;99.90
20803;DHT22;10562;-33.856;151.182;2022-12-07T04:18:02;25.00;99.90
20803;DHT22;10562;-33.856;151.182;2022-12-07T04:20:33;25.00;99.90
20803;DHT22;10562;-33.856;151.182;2022-12-07T04:23:04;25.10;99.90
20803;DHT22;10562;-33.856;151.182;2022-12-07T04:25:35;25.10;99.90
20803;DHT22;10562;-33.856;151.182;2022-12-07T04:28:06;25.10;99.90
20803;DHT22;10562;-33.856;151.182;2022-12-07T04:30:37;25.20;99.90
20803;DHT22;10562;-33.856;151.182;2022-12-07T04:33:10;25.20;99.90
20803;DHT22;10562;-33.856;151.182;2022-12-07T04:35:42;25.30;99.90
20803;DHT22;10562;-33.856;151.182;2022-12-07T04:38:13;25.10;99.90
20803;DHT22;10562;-33.856;151.182;2022-12-07T04:40:44;25.00;99.90
20803;DHT22;10562;-33.856;151.182;2022-12-07T04:43:15;25.00;99.90
20803;DHT22;10562;-33.856;151.182;2022-12-07T04:45:48;25.10;99.90
20803;DHT22;10562;-33.856;151.182;2022-12-07T04:48:21;25.50;99.90
20803;DHT22;10562;-33.856;151.182;2022-12-07T04:50:52;25.70;99.90
20803;DHT22;10562;-33.856;151.182;2022-12-07T04:53:23;26.00;99.90
20803;DHT22;10562;-33.856;151.182;2022-12-07T04:55:54;26.10;95.80
20803;DHT22;10562;-33.856;151.182;2022-12-07T04:58:26;26.20;95.10
20803;DHT22;10562;-33.856;151.182;2022-12-07T05:00:56;26.20;94.70
20803;DHT22;10562;-33.856;151.182;2022-12-07T05:03:29;26.20;93.10
20803;DHT22;10562;-33.856;151.182;2022-12-07T05:06:00;26.20;94.00
20803;DHT22;10562;-33.856;151.182;2022-12-07T05:08:32;26.20;93.40
20803;DHT22;10562;-33.856;151.182;2022-12-07T05:11:04;26.30;91.30
20803;DHT22;10562;-33.856;151.182;2022-12-07T05:13:36;26.40;90.30
20803;DHT22;10562;-33.856;151.182;2022-12-07T05:16:07;26.40;89.60
20803;DHT22;10562;-33.856;151.182;2022-12-07T05:18:41;26.40;90.30
20803;DHT22;10562;-33.856;151.182;2022-12-07T05:21:12;26.40;90.20
20803;DHT22;10562;-33.856;151.182;2022-12-07T05:23:43;26.20;92.20
20803;DHT22;10562;-33.856;151.182;2022-12-07T05:26:14;26.20;91.30
20803;DHT22;10562;-33.856;151.182;2022-12-07T05:28:45;26.10;89.90
20803;DHT22;10562;-33.856;151.182;2022-12-07T05:31:16;26.00;91.40
20803;DHT22;10562;-33.856;151.182;2022-12-07T05:33:49;25.90;91.50
20803;DHT22;10562;-33.856;151.182;2022-12-07T05:36:20;25.90;90.20
20803;DHT22;10562;-33.856;151.182;2022-12-07T05:38:51;25.90;87.20
20803;DHT22;10562;-33.856;151.182;2022-12-07T05:41:22;26.00;87.40
20803;DHT22;10562;-33.856;151.182;2022-12-07T05:44:08;25.80;88.70
20803;DHT22;10562;-33.856;151.182;2022-12-07T05:46:39;25.80;87.50
20803;DHT22;10562;-33.856;151.182;2022-12-07T05:49:12;25.70;90.40
20803;DHT22;10562;-33.856;151.182;2022-12-07T05:51:43;25.80;88.70
20803;DHT22;10562;-33.856;151.182;2022-12-07T05:54:14;25.70;90.70
20803;DHT22;10562;-33.856;151.182;2022-12-07T05:56:45;25.60;91.60
20803;DHT22;10562;-33.856;151.182;2022-12-07T05:59:16;25.50;92.50
20803;DHT22;10562;-33.856;151.182;2022-12-07T06:01:52;25.50;91.90
20803;DHT22;10562;-33.856;151.182;2022-12-07T06:04:25;25.40;92.30
20803;DHT22;10562;-33.856;151.182;2022-12-07T06:06:57;25.30;92.60
20803;DHT22;10562;-33.856;151.182;2022-12-07T06:09:29;25.30;93.40
20803;DHT22;10562;-33.856;151.182;2022-12-07T06:12:00;25.20;93.30
20803;DHT22;10562;-33.856;151.182;2022-12-07T06:14:47;25.20;94.00
20803;DHT22;10562;-33.856;151.182;2022-12-07T06:17:17;25.20;96.10
20803;DHT22;10562;-33.856;151.182;2022-12-07T06:19:50;25.10;95.10
20803;DHT22;10562;-33.856;151.182;2022-12-07T06:22:21;25.00;97.20
20803;DHT22;10562;-33.856;151.182;2022-12-07T06:24:53;24.90;98.80
20803;DHT22;10562;-33.856;151.182;2022-12-07T06:27:24;24.80;99.90
20803;DHT22;10562;-33.856;151.182;2022-12-07T06:29:55;24.70;99.90
20803;DHT22;10562;-33.856;151.182;2022-12-07T06:32:27;24.60;99.90
20803;DHT22;10562;-33.856;151.182;2022-12-07T06:35:00;24.60;99.90
20803;DHT22;10562;-33.856;151.182;2022-12-07T06:37:32;24.50;99.90
20803;DHT22;10562;-33.856;151.182;2022-12-07T06:40:06;24.50;99.90
20803;DHT22;10562;-33.856;151.182;2022-12-07T06:42:37;24.50;99.90
20803;DHT22;10562;-33.856;151.182;2022-12-07T06:45:09;24.40;99.90
20803;DHT22;10562;-33.856;151.182;2022-12-07T06:47:40;24.50;99.90
20803;DHT22;10562;-33.856;151.182;2022-12-07T06:50:13;24.50;99.90
20803;DHT22;10562;-33.856;151.182;2022-12-07T06:52:44;24.60;99.90
20803;DHT22;10562;-33.856;151.182;2022-12-07T06:55:14;24.50;99.90
20803;DHT22;10562;-33.856;151.182;2022-12-07T06:57:45;24.50;99.90
20803;DHT22;10562;-33.856;151.182;2022-12-07T07:00:17;24.50;99.90
20803;DHT22;10562;-33.856;151.182;2022-12-07T07:02:48;24.40;99.90
20803;DHT22;10562;-33.856;151.182;2022-12-07T07:05:21;24.30;99.90
20803;DHT22;10562;-33.856;151.182;2022-12-07T07:07:52;24.30;99.90
20803;DHT22;10562;-33.856;151.182;2022-12-07T07:10:23;24.30;99.90
20803;DHT22;10562;-33.856;151.182;2022-12-07T07:12:54;24.30;99.90
20803;DHT22;10562;-33.856;151.182;2022-12-07T07:15:25;24.20;99.90
20803;DHT22;10562;-33.856;151.182;2022-12-07T07:17:56;24.10;99.90
20803;DHT22;10562;-33.856;151.182;2022-12-07T07:20:28;24.10;99.90
20803;DHT22;10562;-33.856;151.182;2022-12-07T07:23:02;24.00;99.90
20803;DHT22;10562;-33.856;151.182;2022-12-07T07:25:33;24.00;99.90
20803;DHT22;10562;-33.856;151.182;2022-12-07T07:28:05;24.00;99.90
20803;DHT22;10562;-33.856;151.182;2022-12-07T07:30:35;24.00;99.90
20803;DHT22;10562;-33.856;151.182;2022-12-07T07:33:06;24.00;99.90
20803;DHT22;10562;-33.856;151.182;2022-12-07T07:35:39;24.00;99.90
20803;DHT22;10562;-33.856;151.182;2022-12-07T07:38:10;24.00;99.90
20803;DHT22;10562;-33.856;151.182;2022-12-07T07:40:41;23.90;99.90
20803;DHT22;10562;-33.856;151.182;2022-12-07T07:43:12;23.80;99.90
20803;DHT22;10562;-33.856;151.182;2022-12-07T07:45:43;23.80;99.90
20803;DHT22;10562;-33.856;151.182;2022-12-07T07:48:14;23.80;99.90
20803;DHT22;10562;-33.856;151.182;2022-12-07T07:50:47;23.80;99.90
20803;DHT22;10562;-33.856;151.182;2022-12-07T07:53:18;23.70;99.90
20803;DHT22;10562;-33.856;151.182;2022-12-07T07:55:52;23.70;99.90
20803;DHT22;10562;-33.856;151.182;2022-12-07T07:58:24;23.60;99.90
20803;DHT22;10562;-33.856;151.182;2022-12-07T08:00:55;23.60;99.90
20803;DHT22;10562;-33.856;151.182;2022-12-07T08:03:26;23.60;99.90
20803;DHT22;10562;-33.856;151.182;2022-12-07T08:06:00;23.60;99.90
20803;DHT22;10562;-33.856;151.182;2022-12-07T08:08:32;23.60;99.90
20803;DHT22;10562;-33.856;151.182;2022-12-07T08:11:06;23.60;99.90
20803;DHT22;10562;-33.856;151.182;2022-12-07T08:13:38;23.60;99.90
20803;DHT22;10562;-33.856;151.182;2022-12-07T08:16:11;23.50;99.90
20803;DHT22;10562;-33.856;151.182;2022-12-07T08:18:43;23.50;99.90
20803;DHT22;10562;-33.856;151.182;2022-12-07T08:21:16;23.50;99.90
20803;DHT22;10562;-33.856;151.182;2022-12-07T08:23:47;23.50;99.90
20803;DHT22;10562;-33.856;151.182;2022-12-07T08:26:18;23.50;99.90
20803;DHT22;10562;-33.856;151.182;2022-12-07T08:28:49;23.60;99.90
20803;DHT22;10562;-33.856;151.182;2022-12-07T08:31:20;23.60;99.90
20803;DHT22;10562;-33.856;151.182;2022-12-07T08:33:51;23.50;99.90
20803;DHT22;10562;-33.856;151.182;2022-12-07T08:36:24;23.50;99.90
20803;DHT22;10562;-33.856;151.182;2022-12-07T08:38:55;23.50;99.90
20803;DHT22;10562;-33.856;151.182;2022-12-07T08:41:26;23.50;99.90
20803;DHT22;10562;-33.856;151.182;2022-12-07T08:43:57;23.40;99.90
20803;DHT22;10562;-33.856;151.182;2022-12-07T08:46:32;23.40;99.90
20803;DHT22;10562;-33.856;151.182;2022-12-07T08:49:08;23.30;99.90
20803;DHT22;10562;-33.856;151.182;2022-12-07T08:51:43;23.20;99.90
20803;DHT22;10562;-33.856;151.182;2022-12-07T08:54:16;23.30;99.90
20803;DHT22;10562;-33.856;151.182;2022-12-07T08:56:49;23.20;99.90
20803;DHT22;10562;-33.856;151.182;2022-12-07T08:59:21;23.20;99.90
20803;DHT22;10562;-33.856;151.182;2022-12-07T09:01:52;23.10;99.90
20803;DHT22;10562;-33.856;151.182;2022-12-07T09:04:24;23.00;99.90
20803;DHT22;10562;-33.856;151.182;2022-12-07T09:06:57;23.10;99.90
20803;DHT22;10562;-33.856;151.182;2022-12-07T09:09:29;23.00;99.90
20803;DHT22;10562;-33.856;151.182;2022-12-07T09:11:59;22.90;99.90
20803;DHT22;10562;-33.856;151.182;2022-12-07T09:14:30;22.90;99.90
20803;DHT22;10562;-33.856;151.182;2022-12-07T09:17:07;22.80;99.90
20803;DHT22;10562;-33.856;151.182;2022-12-07T09:19:38;22.90;99.90
20803;DHT22;10562;-33.856;151.182;2022-12-07T09:22:12;22.80;99.90
20803;DHT22;10562;-33.856;151.182;2022-12-07T09:24:43;22.70;99.90
20803;DHT22;10562;-33.856;151.182;2022-12-07T09:27:14;22.70;99.90
20803;DHT22;10562;-33.856;151.182;2022-12-07T09:29:45;22.60;99.90
20803;DHT22;10562;-33.856;151.182;2022-12-07T09:32:17;22.60;99.90
20803;DHT22;10562;-33.856;151.182;2022-12-07T09:34:48;22.50;99.90
20803;DHT22;10562;-33.856;151.182;2022-12-07T09:37:21;22.50;99.90
20803;DHT22;10562;-33.856;151.182;2022-12-07T09:39:52;22.40;99.90
20803;DHT22;10562;-33.856;151.182;2022-12-07T09:42:29;22.40;99.90
20803;DHT22;10562;-33.856;151.182;2022-12-07T09:45:01;22.40;99.90
20803;DHT22;10562;-33.856;151.182;2022-12-07T09:47:34;22.30;99.90
20803;DHT22;10562;-33.856;151.182;2022-12-07T09:50:07;22.20;99.90
20803;DHT22;10562;-33.856;151.182;2022-12-07T09:52:45;22.20;99.90
20803;DHT22;10562;-33.856;151.182;2022-12-07T09:55:19;22.20;99.90
20803;DHT22;10562;-33.856;151.182;2022-12-07T09:57:53;22.20;99.90
20803;DHT22;10562;-33.856;151.182;2022-12-07T10:00:25;22.10;99.90
20803;DHT22;10562;-33.856;151.182;2022-12-07T10:02:57;22.10;99.90
20803;DHT22;10562;-33.856;151.182;2022-12-07T10:05:30;22.20;99.90
20803;DHT22;10562;-33.856;151.182;2022-12-07T10:08:03;22.20;99.90
20803;DHT22;10562;-33.856;151.182;2022-12-07T10:10:35;22.10;99.90
20803;DHT22;10562;-33.856;151.182;2022-12-07T10:13:08;22.10;99.90
20803;DHT22;10562;-33.856;151.182;2022-12-07T10:15:46;22.10;99.90
20803;DHT22;10562;-33.856;151.182;2022-12-07T10:18:31;22.10;99.90
20803;DHT22;10562;-33.856;151.182;2022-12-07T10:21:12;22.20;99.90
20803;DHT22;10562;-33.856;151.182;2022-12-07T10:24:01;22.10;99.90
20803;DHT22;10562;-33.856;151.182;2022-12-07T10:26:34;22.10;99.90
20803;DHT22;10562;-33.856;151.182;2022-12-07T10:29:16;22.00;99.90
20803;DHT22;10562;-33.856;151.182;2022-12-07T10:31:56;22.00;99.90
20803;DHT22;10562;-33.856;151.182;2022-12-07T10:34:28;22.00;99.90
20803;DHT22;10562;-33.856;151.182;2022-12-07T10:37:16;22.00;99.90
20803;DHT22;10562;-33.856;151.182;2022-12-07T10:39:50;22.00;99.90
20803;DHT22;10562;-33.856;151.182;2022-12-07T10:42:22;22.10;99.90
20803;DHT22;10562;-33.856;151.182;2022-12-07T10:45:09;22.10;99.90
20803;DHT22;10562;-33.856;151.182;2022-12-07T10:47:47;22.10;99.90
20803;DHT22;10562;-33.856;151.182;2022-12-07T10:50:41;22.10;99.90
20803;DHT22;10562;-33.856;151.182;2022-12-07T10:53:28;22.10;99.90
20803;DHT22;10562;-33.856;151.182;2022-12-07T10:56:29;22.10;99.90
20803;DHT22;10562;-33.856;151.182;2022-12-07T11:02:22;22.00;99.90
20803;DHT22;10562;-33.856;151.182;2022-12-07T11:05:06;21.90;99.90
20803;DHT22;10562;-33.856;151.182;2022-12-07T11:07:45;21.90;99.90
20803;DHT22;10562;-33.856;151.182;2022-12-07T11:10:21;21.90;99.90
20803;DHT22;10562;-33.856;151.182;2022-12-07T11:16:18;22.00;99.90
20803;DHT22;10562;-33.856;151.182;2022-12-07T11:19:06;22.00;99.90
20803;DHT22;10562;-33.856;151.182;2022-12-07T11:21:48;22.00;99.90
20803;DHT22;10562;-33.856;151.182;2022-12-07T11:24:22;22.00;99.90
20803;DHT22;10562;-33.856;151.182;2022-12-07T11:27:04;22.00;99.90
20803;DHT22;10562;-33.856;151.182;2022-12-07T11:30:13;22.00;99.90
20803;DHT22;10562;-33.856;151.182;2022-12-07T11:33:06;22.10;99.90
20803;DHT22;10562;-33.856;151.182;2022-12-07T11:35:51;22.00;99.90
20803;DHT22;10562;-33.856;151.182;2022-12-07T11:38:28;22.00;99.90
20803;DHT22;10562;-33.856;151.182;2022-12-07T11:41:03;21.90;99.90
20803;DHT22;10562;-33.856;151.182;2022-12-07T11:43:57;21.90;99.90
20803;DHT22;10562;-33.856;151.182;2022-12-07T11:46:40;21.80;99.90
20803;DHT22;10562;-33.856;151.182;2022-12-07T11:49:21;21.70;99.90
20803;DHT22;10562;-33.856;151.182;2022-12-07T11:51:57;21.80;99.90
20803;DHT22;10562;-33.856;151.182;2022-12-07T11:54:31;21.70;99.90
20803;DHT22;10562;-33.856;151.182;2022-12-07T11:57:12;21.70;99.90
20803;DHT22;10562;-33.856;151.182;2022-12-07T11:59:48;21.70;99.90
20803;DHT22;10562;-33.856;151.182;2022-12-07T12:02:26;21.70;99.90
20803;DHT22;10562;-33.856;151.182;2022-12-07T12:05:12;21.60;99.90
20803;DHT22;10562;-33.856;151.182;2022-12-07T12:07:46;21.60;99.90
20803;DHT22;10562;-33.856;151.182;2022-12-07T12:10:21;21.50;99.90
20803;DHT22;10562;-33.856;151.182;2022-12-07T12:13:14;21.50;99.90
20803;DHT22;10562;-33.856;151.182;2022-12-07T12:16:06;21.40;99.90
20803;DHT22;10562;-33.856;151.182;2022-12-07T12:18:58;21.40;99.90
20803;DHT22;10562;-33.856;151.182;2022-12-07T12:21:37;21.30;99.90
20803;DHT22;10562;-33.856;151.182;2022-12-07T12:24:14;21.30;99.90
20803;DHT22;10562;-33.856;151.182;2022-12-07T12:26:52;21.30;99.90
20803;DHT22;10562;-33.856;151.182;2022-12-07T12:29:28;21.30;99.90
20803;DHT22;10562;-33.856;151.182;2022-12-07T12:32:13;21.20;99.90
20803;DHT22;10562;-33.856;151.182;2022-12-07T12:35:17;21.20;99.90
20803;DHT22;10562;-33.856;151.182;2022-12-07T12:37:53;21.10;99.90
20803;DHT22;10562;-33.856;151.182;2022-12-07T12:40:43;21.00;99.90
20803;DHT22;10562;-33.856;151.182;2022-12-07T12:43:42;21.00;99.90
20803;DHT22;10562;-33.856;151.182;2022-12-07T12:46:36;21.00;99.90
20803;DHT22;10562;-33.856;151.182;2022-12-07T12:58:33;20.80;99.90
20803;DHT22;10562;-33.856;151.182;2022-12-07T13:01:41;20.80;99.90
20803;DHT22;10562;-33.856;151.182;2022-12-07T13:04:28;20.80;99.90
20803;DHT22;10562;-33.856;151.182;2022-12-07T13:07:00;20.80;99.90
20803;DHT22;10562;-33.856;151.182;2022-12-07T13:09:32;20.80;99.90
20803;DHT22;10562;-33.856;151.182;2022-12-07T13:12:13;20.90;99.90
20803;DHT22;10562;-33.856;151.182;2022-12-07T13:14:58;20.90;99.90
20803;DHT22;10562;-33.856;151.182;2022-12-07T13:18:04;21.00;99.90
20803;DHT22;10562;-33.856;151.182;2022-12-07T13:20:54;21.00;99.90
20803;DHT22;10562;-33.856;151.182;2022-12-07T13:23:31;21.00;99.90
20803;DHT22;10562;-33.856;151.182;2022-12-07T13:26:16;21.00;99.90
20803;DHT22;10562;-33.856;151.182;2022-12-07T13:28:50;21.00;99.90
20803;DHT22;10562;-33.856;151.182;2022-12-07T13:31:32;20.90;99.90
20803;DHT22;10562;-33.856;151.182;2022-12-07T13:34:04;20.90;99.90
20803;DHT22;10562;-33.856;151.182;2022-12-07T13:36:39;20.90;99.90
20803;DHT22;10562;-33.856;151.182;2022-12-07T13:39:18;20.90;99.90
20803;DHT22;10562;-33.856;151.182;2022-12-07T13:41:52;20.80;99.90
20803;DHT22;10562;-33.856;151.182;2022-12-07T13:44:27;20.70;99.90
20803;DHT22;10562;-33.856;151.182;2022-12-07T13:47:04;20.70;99.90
20803;DHT22;10562;-33.856;151.182;2022-12-07T13:49:46;20.70;99.90
20803;DHT22;10562;-33.856;151.182;2022-12-07T13:52:18;20.60;99.90
20803;DHT22;10562;-33.856;151.182;2022-12-07T13:54:56;20.50;99.90
20803;DHT22;10562;-33.856;151.182;2022-12-07T13:57:29;20.50;99.90
20803;DHT22;10562;-33.856;151.182;2022-12-07T14:00:13;20.40;99.90
20803;DHT22;10562;-33.856;151.182;2022-12-07T14:02:56;20.40;99.90
20803;DHT22;10562;-33.856;151.182;2022-12-07T14:05:27;20.30;99.90
20803;DHT22;10562;-33.856;151.182;2022-12-07T14:07:59;20.20;99.90
20803;DHT22;10562;-33.856;151.182;2022-12-07T14:10:32;20.20;99.90
20803;DHT22;10562;-33.856;151.182;2022-12-07T14:13:20;20.10;99.90
20803;DHT22;10562;-33.856;151.182;2022-12-07T14:15:55;20.20;99.90
20803;DHT22;10562;-33.856;151.182;2022-12-07T14:18:28;20.30;99.90
20803;DHT22;10562;-33.856;151.182;2022-12-07T14:21:06;20.20;99.90
20803;DHT22;10562;-33.856;151.182;2022-12-07T14:23:38;20.20;99.90
20803;DHT22;10562;-33.856;151.182;2022-12-07T14:26:12;20.30;99.90
20803;DHT22;10562;-33.856;151.182;2022-12-07T14:28:44;20.30;99.90
20803;DHT22;10562;-33.856;151.182;2022-12-07T14:31:20;20.40;99.90
20803;DHT22;10562;-33.856;151.182;2022-12-07T14:33:54;20.40;99.90
20803;DHT22;10562;-33.856;151.182;2022-12-07T14:36:29;20.50;99.90
20803;DHT22;10562;-33.856;151.182;2022-12-07T14:39:00;20.40;99.90
20803;DHT22;10562;-33.856;151.182;2022-12-07T14:41:31;20.40;99.90
20803;DHT22;10562;-33.856;151.182;2022-12-07T14:44:18;20.50;99.90
20803;DHT22;10562;-33.856;151.182;2022-12-07T14:46:52;20.40;99.90
20803;DHT22;10562;-33.856;151.182;2022-12-07T14:49:23;20.40;99.90
20803;DHT22;10562;-33.856;151.182;2022-12-07T14:51:54;20.40;99.90
20803;DHT22;10562;-33.856;151.182;2022-12-07T14:54:27;20.30;99.90
20803;DHT22;10562;-33.856;151.182;2022-12-07T14:57:00;20.30;99.90
20803;DHT22;10562;-33.856;151.182;2022-12-07T14:59:31;20.30;99.90
20803;DHT22;10562;-33.856;151.182;2022-12-07T15:02:04;20.30;99.90
20803;DHT22;10562;-33.856;151.182;2022-12-07T15:04:35;20.30;99.90
20803;DHT22;10562;-33.856;151.182;2022-12-07T15:07:12;20.20;99.90
20803;DHT22;10562;-33.856;151.182;2022-12-07T15:09:45;20.20;99.90
20803;DHT22;10562;-33.856;151.182;2022-12-07T15:12:15;20.20;99.90
20803;DHT22;10562;-33.856;151.182;2022-12-07T15:14:46;20.20;99.90
20803;DHT22;10562;-33.856;151.182;2022-12-07T15:17:19;20.20;99.90
20803;DHT22;10562;-33.856;151.182;2022-12-07T15:19:50;20.20;99.90
20803;DHT22;10562;-33.856;151.182;2022-12-07T15:22:21;20.20;99.90
20803;DHT22;10562;-33.856;151.182;2022-12-07T15:24:52;20.20;99.90
20803;DHT22;10562;-33.856;151.182;2022-12-07T15:27:23;20.20;99.90
20803;DHT22;10562;-33.856;151.182;2022-12-07T15:29:53;20.20;99.90
20803;DHT22;10562;-33.856;151.182;2022-12-07T15:32:26;20.10;99.90
20803;DHT22;10562;-33.856;151.182;2022-12-07T15:34:57;20.10;99.90
20803;DHT22;10562;-33.856;151.182;2022-12-07T15:37:28;20.00;99.90
20803;DHT22;10562;-33.856;151.182;2022-12-07T15:39:59;19.90;99.90
20803;DHT22;10562;-33.856;151.182;2022-12-07T15:42:30;19.80;99.90
20803;DHT22;10562;-33.856;151.182;2022-12-07T15:45:02;19.80;99.90
20803;DHT22;10562;-33.856;151.182;2022-12-07T15:47:36;19.90;99.90
20803;DHT22;10562;-33.856;151.182;2022-12-07T15:50:10;19.90;99.90
20803;DHT22;10562;-33.856;151.182;2022-12-07T15:52:41;19.90;99.90